Time;durP1;ratioP1;P1;durP2;ratioP2;P2;SDS_P1;SDS_P2;PMS_P1;PMS_P2;Temp;Humidity;BMP_temperature;BMP_pressure;BME280_temperature;BME280_humidity;BME280_pressure;Samples;Min_cycle;Max_cycle;Signal;HPM_P1;HPM_P2
2022/02/24 00:01:53;;;;;;;18.53;7.00;;;13.30;99.90;;;;;;5073181;28;20195;-69
2022/02/24 00:04:20;;;;;;;18.63;8.33;;;13.20;99.90;;;;;;5066793;28;20281;-69
2022/02/24 00:06:46;;;;;;;15.57;8.07;;;13.10;99.90;;;;;;5080714;28;20284;-68
2022/02/24 00:09:12;;;;;;;17.83;7.63;;;13.00;99.90;;;;;;5097305;28;20182;-67
2022/02/24 00:11:39;;;;;;;17.07;8.10;;;13.00;99.90;;;;;;5071817;28;20183;-68
2022/02/24 00:14:05;;;;;;;16.10;7.53;;;12.90;99.90;;;;;;5097169;28;20687;-67
2022/02/24 00:16:31;;;;;;;17.20;7.40;;;12.80;99.90;;;;;;5055594;28;20171;-67
2022/02/24 00:18:57;;;;;;;15.23;6.87;;;12.80;99.90;;;;;;5087688;28;20186;-67
2022/02/24 00:21:24;;;;;;;14.07;6.10;;;12.70;99.90;;;;;;5094996;28;20179;-67
2022/02/24 00:23:50;;;;;;;14.43;6.23;;;12.60;99.90;;;;;;5070070;28;20327;-68
2022/02/24 00:26:17;;;;;;;17.43;5.37;;;12.50;99.90;;;;;;5073001;28;20198;-68
2022/02/24 00:28:43;;;;;;;9.37;5.60;;;12.50;99.90;;;;;;5089980;28;20186;-68
2022/02/24 00:31:10;;;;;;;10.07;5.17;;;12.40;99.90;;;;;;5073947;28;20232;-68
2022/02/24 00:33:38;;;;;;;12.23;5.47;;;12.40;99.90;;;;;;5072986;28;20314;-66
2022/02/24 00:36:06;;;;;;;11.17;5.70;;;12.40;99.90;;;;;;5069812;28;20202;-67
2022/02/24 00:38:33;;;;;;;16.03;5.60;;;12.30;99.90;;;;;;5074771;28;20194;-68
2022/02/24 00:41:00;;;;;;;13.23;5.53;;;12.40;99.90;;;;;;5070006;28;20736;-66
2022/02/24 00:43:27;;;;;;;11.83;5.13;;;12.40;99.90;;;;;;5067496;28;20194;-67
2022/02/24 00:45:53;;;;;;;12.83;4.80;;;12.30;99.90;;;;;;5079086;28;20194;-68
2022/02/24 00:48:19;;;;;;;10.63;4.27;;;12.30;99.90;;;;;;5067535;28;20655;-68
2022/02/24 00:50:46;;;;;;;5.83;3.60;;;12.20;99.90;;;;;;5067850;28;20650;-67
2022/02/24 00:53:12;;;;;;;7.87;3.50;;;12.20;99.90;;;;;;5067834;28;20231;-68
2022/02/24 00:55:38;;;;;;;7.50;4.30;;;12.10;99.90;;;;;;5070132;28;20943;-67
2022/02/24 00:58:05;;;;;;;11.07;3.57;;;12.00;99.90;;;;;;5072866;28;20211;-67
2022/02/24 01:00:31;;;;;;;10.03;4.13;;;12.00;99.90;;;;;;5087020;28;20266;-67
2022/02/24 01:02:57;;;;;;;9.40;4.50;;;12.00;99.90;;;;;;5077098;28;20576;-69
2022/02/24 01:05:24;;;;;;;12.77;4.97;;;12.00;99.90;;;;;;5081865;28;20186;-68
2022/02/24 01:07:50;;;;;;;16.40;5.27;;;12.00;99.90;;;;;;5089995;28;20190;-68
2022/02/24 01:10:16;;;;;;;11.37;5.50;;;12.00;99.90;;;;;;5088581;28;20193;-67
2022/02/24 01:12:43;;;;;;;9.70;5.90;;;12.00;99.90;;;;;;5080857;28;20202;-67
2022/02/24 01:15:11;;;;;;;10.73;5.13;;;12.10;99.90;;;;;;5078789;28;20191;-67
2022/02/24 01:17:43;;;;;;;17.13;5.90;;;12.20;99.90;;;;;;5078794;28;20179;-67
2022/02/24 01:20:10;;;;;;;14.50;5.83;;;12.20;99.90;;;;;;5072339;28;20218;-67
2022/02/24 01:22:37;;;;;;;14.77;5.47;;;12.20;99.90;;;;;;5068680;28;20222;-67
2022/02/24 01:25:05;;;;;;;9.77;5.60;;;12.20;99.90;;;;;;5070307;28;20269;-67
2022/02/24 01:27:31;;;;;;;10.73;5.10;;;12.20;99.90;;;;;;5081683;28;20190;-68
2022/02/24 01:29:58;;;;;;;10.37;5.17;;;12.30;99.90;;;;;;5075657;28;20204;-67
2022/02/24 01:32:25;;;;;;;11.90;5.17;;;12.30;99.90;;;;;;5078491;28;20562;-67
2022/02/24 01:34:58;;;;;;;13.10;5.33;;;12.30;99.90;;;;;;5083543;28;20178;-68
2022/02/24 01:37:28;;;;;;;14.50;4.93;;;12.30;99.90;;;;;;5081084;28;20194;-67
2022/02/24 01:39:54;;;;;;;10.67;5.00;;;12.30;99.90;;;;;;5078811;28;20229;-67
2022/02/24 01:42:21;;;;;;;8.63;4.37;;;12.40;99.90;;;;;;5068731;28;20318;-67
2022/02/24 01:44:48;;;;;;;11.53;4.97;;;12.40;99.90;;;;;;5068913;28;20174;-68
2022/02/24 01:47:15;;;;;;;10.63;4.03;;;12.50;99.90;;;;;;5083846;28;20217;-67
2022/02/24 01:49:43;;;;;;;11.57;4.40;;;12.50;99.90;;;;;;5087385;28;20190;-68
2022/02/24 01:52:13;;;;;;;9.00;4.23;;;12.50;99.90;;;;;;5073908;28;20268;-67
2022/02/24 01:54:41;;;;;;;12.27;4.10;;;12.50;99.90;;;;;;5081450;28;20190;-68
2022/02/24 01:57:08;;;;;;;9.00;3.70;;;12.50;99.90;;;;;;5087617;28;20265;-67
2022/02/24 01:59:36;;;;;;;10.50;4.60;;;12.50;99.90;;;;;;5079962;28;20189;-68
2022/02/24 02:02:03;;;;;;;11.57;4.43;;;12.50;99.90;;;;;;5086472;28;20183;-67
2022/02/24 02:04:29;;;;;;;8.40;3.80;;;12.50;99.90;;;;;;5067493;28;20201;-67
2022/02/24 02:06:56;;;;;;;8.50;3.30;;;12.60;99.90;;;;;;5086333;28;20190;-67
2022/02/24 02:09:22;;;;;;;7.80;3.60;;;12.70;99.90;;;;;;5076969;28;20193;-68
2022/02/24 02:11:49;;;;;;;10.10;3.37;;;12.90;99.90;;;;;;5080631;28;20272;-68
2022/02/24 02:14:15;;;;;;;8.60;3.23;;;13.00;99.90;;;;;;5081726;28;20729;-67
2022/02/24 02:16:46;;;;;;;5.73;3.77;;;13.10;99.90;;;;;;5076265;28;20194;-68
2022/02/24 02:19:13;;;;;;;17.27;3.43;;;13.10;99.90;;;;;;5082736;28;20206;-68
2022/02/24 02:21:39;;;;;;;9.30;3.53;;;13.00;99.90;;;;;;5066683;28;20221;-68
2022/02/24 02:24:07;;;;;;;5.87;3.27;;;13.10;99.90;;;;;;5069835;28;20186;-67
2022/02/24 02:26:33;;;;;;;8.47;3.80;;;13.00;99.90;;;;;;5068017;28;20183;-68
2022/02/24 02:29:03;;;;;;;7.03;3.13;;;13.00;99.90;;;;;;5086414;28;20190;-67
2022/02/24 02:31:29;;;;;;;5.33;3.27;;;13.00;99.90;;;;;;5079684;28;20220;-67
2022/02/24 02:34:05;;;;;;;10.93;3.30;;;13.00;99.90;;;;;;5085764;28;20282;-68
2022/02/24 02:36:32;;;;;;;7.33;3.27;;;13.00;99.90;;;;;;5069682;28;20255;-68
2022/02/24 02:38:58;;;;;;;15.33;4.37;;;13.00;99.90;;;;;;5072917;28;20190;-68
2022/02/24 02:41:29;;;;;;;13.83;4.70;;;13.10;99.90;;;;;;5069400;28;20241;-68
2022/02/24 02:43:57;;;;;;;12.33;4.10;;;13.30;99.90;;;;;;5068398;28;20182;-67
2022/02/24 02:46:23;;;;;;;13.60;3.80;;;13.40;99.90;;;;;;5074941;28;20194;-68
2022/02/24 02:48:50;;;;;;;13.30;3.87;;;13.50;99.90;;;;;;5074054;28;20201;-68
2022/02/24 02:51:16;;;;;;;12.60;5.00;;;13.60;99.90;;;;;;5067851;28;20222;-68
2022/02/24 02:53:43;;;;;;;13.67;5.13;;;13.60;99.90;;;;;;5076661;28;20652;-68
2022/02/24 02:56:11;;;;;;;19.00;4.90;;;13.70;99.90;;;;;;5071139;28;20190;-68
2022/02/24 02:58:37;;;;;;;19.47;5.13;;;13.80;99.90;;;;;;5077305;28;20205;-68
2022/02/24 03:01:04;;;;;;;17.17;6.20;;;13.80;99.90;;;;;;5083525;28;20186;-69
2022/02/24 03:03:32;;;;;;;14.03;6.40;;;13.80;99.90;;;;;;5082817;28;20920;-67
2022/02/24 03:05:58;;;;;;;12.03;5.03;;;13.90;99.90;;;;;;5087090;28;20178;-67
2022/02/24 03:08:25;;;;;;;17.67;4.47;;;14.00;99.90;;;;;;5077995;28;20193;-68
2022/02/24 03:10:52;;;;;;;13.67;4.47;;;14.00;99.90;;;;;;5096759;28;20691;-67
2022/02/24 03:13:19;;;;;;;16.40;4.77;;;14.00;99.90;;;;;;5083407;28;20214;-67
2022/02/24 03:15:47;;;;;;;15.47;4.80;;;14.00;99.90;;;;;;5070658;28;20171;-67
2022/02/24 03:18:13;;;;;;;15.23;4.70;;;14.10;99.90;;;;;;5068148;28;20248;-68
2022/02/24 03:20:40;;;;;;;9.80;4.30;;;14.10;99.90;;;;;;5066595;28;20171;-67
2022/02/24 03:23:09;;;;;;;8.83;4.00;;;14.10;99.90;;;;;;5058880;28;20664;-67
2022/02/24 03:25:36;;;;;;;11.27;4.73;;;14.10;99.90;;;;;;5070256;28;20219;-67
2022/02/24 03:28:04;;;;;;;11.77;4.77;;;14.00;99.90;;;;;;5082923;28;20187;-68
2022/02/24 03:30:32;;;;;;;16.30;5.60;;;13.80;99.90;;;;;;5083449;28;20247;-67
2022/02/24 03:33:02;;;;;;;19.00;4.57;;;13.70;99.90;;;;;;5084149;28;20733;-68
2022/02/24 03:35:29;;;;;;;10.30;4.50;;;13.60;99.90;;;;;;5067330;28;20183;-68
2022/02/24 03:37:58;;;;;;;10.80;4.53;;;13.50;99.90;;;;;;5067475;28;20273;-68
2022/02/24 03:40:26;;;;;;;10.17;4.43;;;13.40;99.90;;;;;;5079376;28;20179;-67
2022/02/24 03:42:53;;;;;;;9.47;5.03;;;13.40;99.90;;;;;;5078584;28;20229;-68
2022/02/24 03:45:19;;;;;;;9.50;4.70;;;13.30;99.90;;;;;;5071519;28;20200;-67
2022/02/24 03:47:45;;;;;;;9.37;4.23;;;13.30;99.90;;;;;;5066788;28;20190;-67
2022/02/24 03:50:13;;;;;;;18.03;4.73;;;13.30;99.90;;;;;;5066030;28;20639;-67
2022/02/24 03:52:40;;;;;;;10.13;4.63;;;13.40;99.90;;;;;;5074937;28;20234;-68
2022/02/24 03:55:08;;;;;;;12.00;4.50;;;13.30;99.90;;;;;;5089357;28;20185;-68
2022/02/24 03:57:35;;;;;;;12.67;5.10;;;13.30;99.90;;;;;;5082297;28;20185;-67
2022/02/24 04:00:07;;;;;;;13.47;5.20;;;13.40;99.90;;;;;;5070895;28;20203;-67
2022/02/24 04:02:33;;;;;;;16.53;5.27;;;13.40;99.90;;;;;;5081484;28;20182;-67
2022/02/24 04:05:00;;;;;;;13.57;5.03;;;13.50;99.90;;;;;;5083984;28;20667;-68
2022/02/24 04:07:27;;;;;;;13.67;4.93;;;13.50;99.90;;;;;;5069384;28;20213;-68
2022/02/24 04:09:54;;;;;;;22.27;5.87;;;13.50;99.90;;;;;;5087121;28;20201;-69
2022/02/24 04:12:20;;;;;;;10.73;5.03;;;13.60;99.90;;;;;;5077822;28;20761;-69
2022/02/24 04:14:47;;;;;;;19.63;5.70;;;13.60;99.90;;;;;;5068039;28;20620;-67
2022/02/24 04:17:14;;;;;;;18.00;6.50;;;13.60;99.90;;;;;;5083180;28;20263;-67
2022/02/24 04:19:40;;;;;;;25.77;6.73;;;13.60;99.90;;;;;;5084449;28;20560;-68
2022/02/24 04:22:07;;;;;;;20.83;6.77;;;13.70;99.90;;;;;;5075880;28;20858;-67
2022/02/24 04:24:33;;;;;;;33.50;8.10;;;13.80;99.90;;;;;;5064246;28;20648;-68
2022/02/24 04:27:00;;;;;;;32.30;8.03;;;13.70;99.90;;;;;;5105845;28;20183;-67
2022/02/24 04:29:26;;;;;;;36.07;8.60;;;13.70;99.90;;;;;;5077731;28;20191;-68
2022/02/24 04:31:52;;;;;;;30.90;8.77;;;13.70;99.90;;;;;;5073818;28;20250;-69
2022/02/24 04:34:18;;;;;;;34.47;8.40;;;13.70;99.90;;;;;;5068174;28;20279;-69
2022/02/24 04:36:45;;;;;;;39.90;8.83;;;13.70;99.90;;;;;;5082733;28;20600;-68
2022/02/24 04:39:11;;;;;;;31.83;7.53;;;13.60;99.90;;;;;;5068871;28;20190;-69
2022/02/24 04:41:37;;;;;;;35.40;8.70;;;13.60;99.90;;;;;;5069634;28;20532;-67
2022/02/24 04:44:04;;;;;;;32.53;8.23;;;13.60;99.90;;;;;;5068983;28;20194;-68
2022/02/24 04:46:31;;;;;;;45.23;8.60;;;13.60;99.90;;;;;;5085894;28;20221;-67
2022/02/24 04:48:59;;;;;;;27.97;8.20;;;13.60;99.90;;;;;;5069648;28;20556;-68
2022/02/24 04:51:26;;;;;;;36.43;9.27;;;13.50;99.90;;;;;;5076153;28;20274;-67
2022/02/24 04:53:52;;;;;;;39.80;9.90;;;13.50;99.90;;;;;;5087532;28;20205;-67
2022/02/24 04:56:18;;;;;;;37.40;8.90;;;13.50;99.90;;;;;;5085175;28;20278;-68
2022/02/24 04:58:44;;;;;;;39.00;9.27;;;13.50;99.90;;;;;;5078624;28;20456;-68
2022/02/24 05:01:11;;;;;;;35.13;9.10;;;13.50;99.90;;;;;;5088110;28;20191;-67
2022/02/24 05:03:37;;;;;;;40.43;9.90;;;13.50;99.90;;;;;;5068790;28;20794;-69
2022/02/24 05:06:05;;;;;;;39.83;8.83;;;13.50;99.90;;;;;;5060385;28;20202;-67
2022/02/24 05:08:32;;;;;;;39.00;9.37;;;13.50;99.90;;;;;;5085832;28;21013;-68
2022/02/24 05:11:01;;;;;;;30.17;8.60;;;13.50;99.90;;;;;;5090162;28;20216;-69
2022/02/24 05:13:27;;;;;;;33.47;10.10;;;13.50;99.90;;;;;;5080775;28;20225;-67
2022/02/24 05:15:54;;;;;;;42.43;9.30;;;13.50;99.90;;;;;;5094548;28;20285;-67
2022/02/24 05:18:21;;;;;;;40.53;9.73;;;13.50;99.90;;;;;;5108813;28;20223;-67
2022/02/24 05:20:47;;;;;;;40.83;9.17;;;13.50;99.90;;;;;;5091645;28;20193;-68
2022/02/24 05:23:13;;;;;;;39.90;10.23;;;13.60;99.90;;;;;;5088772;28;20694;-67
2022/02/24 05:25:40;;;;;;;45.17;10.40;;;13.60;99.90;;;;;;5084090;28;20201;-68
2022/02/24 05:28:08;;;;;;;42.13;10.47;;;13.60;99.90;;;;;;5087303;28;20182;-67
2022/02/24 05:30:35;;;;;;;46.53;9.20;;;13.60;99.90;;;;;;5085468;28;20224;-67
2022/02/24 05:33:01;;;;;;;49.30;10.37;;;13.60;99.90;;;;;;5086496;28;20218;-69
2022/02/24 05:35:27;;;;;;;38.70;10.77;;;13.60;99.90;;;;;;5086615;28;20198;-69
2022/02/24 05:37:54;;;;;;;50.93;11.03;;;13.70;99.90;;;;;;5088640;28;20218;-67
2022/02/24 05:40:20;;;;;;;41.97;9.20;;;13.70;99.90;;;;;;5084733;28;20190;-67
2022/02/24 05:42:47;;;;;;;44.67;11.10;;;13.70;99.90;;;;;;5073816;28;20701;-68
2022/02/24 05:45:13;;;;;;;45.30;9.93;;;13.70;99.90;;;;;;5079516;28;20209;-69
2022/02/24 05:47:40;;;;;;;35.77;8.57;;;13.70;99.90;;;;;;5089477;28;20182;-67
2022/02/24 05:50:07;;;;;;;47.83;10.20;;;13.70;99.90;;;;;;5087797;28;20202;-68
2022/02/24 05:52:35;;;;;;;36.17;9.73;;;13.70;99.90;;;;;;5087210;28;20324;-69
2022/02/24 05:55:03;;;;;;;34.00;8.93;;;13.70;99.90;;;;;;5080454;28;20214;-69
2022/02/24 05:57:30;;;;;;;34.50;9.40;;;13.70;99.90;;;;;;5082886;28;20274;-69
2022/02/24 05:59:56;;;;;;;36.53;8.63;;;13.70;99.90;;;;;;5079560;28;20183;-68
2022/02/24 06:02:22;;;;;;;29.10;8.23;;;13.70;99.90;;;;;;5069300;28;20724;-68
2022/02/24 06:04:49;;;;;;;41.77;7.73;;;13.60;99.90;;;;;;5074274;28;20635;-67
2022/02/24 06:07:15;;;;;;;29.57;7.30;;;13.60;99.90;;;;;;5086750;28;20278;-70
2022/02/24 06:09:41;;;;;;;35.77;8.40;;;13.60;99.90;;;;;;5089230;28;20323;-67
2022/02/24 06:12:07;;;;;;;40.90;8.30;;;13.60;99.90;;;;;;5085791;28;20599;-68
2022/02/24 06:14:34;;;;;;;40.07;8.33;;;13.60;99.90;;;;;;5078134;28;20197;-67
2022/02/24 06:17:00;;;;;;;30.97;7.27;;;13.60;99.90;;;;;;5088834;28;20188;-68
2022/02/24 06:19:28;;;;;;;35.77;6.80;;;13.60;99.90;;;;;;5086398;28;20190;-67
2022/02/24 06:21:54;;;;;;;26.27;6.13;;;13.50;99.90;;;;;;5102780;28;20948;-69
2022/02/24 06:24:21;;;;;;;26.20;5.57;;;13.50;99.90;;;;;;5076267;28;20559;-69
2022/02/24 06:26:47;;;;;;;34.90;6.20;;;13.40;99.90;;;;;;5060192;28;20816;-67
2022/02/24 06:29:13;;;;;;;31.93;5.53;;;13.40;99.90;;;;;;5077990;28;20191;-68
2022/02/24 06:31:40;;;;;;;27.27;5.50;;;13.40;99.90;;;;;;5082946;28;20243;-68
2022/02/24 06:34:07;;;;;;;18.43;4.73;;;13.30;99.90;;;;;;5075175;28;20232;-67
2022/02/24 06:36:33;;;;;;;16.90;4.70;;;13.30;99.90;;;;;;5084651;28;20186;-68
2022/02/24 06:38:59;;;;;;;27.37;5.33;;;13.30;99.90;;;;;;5067408;28;20190;-67
2022/02/24 06:41:26;;;;;;;18.13;3.77;;;13.30;99.90;;;;;;5073735;28;20193;-68
2022/02/24 06:43:53;;;;;;;19.50;4.73;;;13.20;99.90;;;;;;5063197;28;20225;-68
2022/02/24 06:46:20;;;;;;;18.67;5.17;;;13.20;99.90;;;;;;5070883;28;20203;-69
2022/02/24 06:48:47;;;;;;;26.33;4.87;;;13.20;99.90;;;;;;5080620;28;20186;-69
2022/02/24 06:51:13;;;;;;;18.17;4.47;;;13.30;99.90;;;;;;5078130;28;20207;-67
2022/02/24 06:53:41;;;;;;;25.43;4.63;;;13.40;99.90;;;;;;5051496;28;20217;-68
2022/02/24 06:56:08;;;;;;;23.13;4.53;;;13.50;99.90;;;;;;5069348;28;20277;-68
2022/02/24 06:58:34;;;;;;;33.33;4.97;;;13.50;99.90;;;;;;5073128;28;20252;-67
2022/02/24 07:01:02;;;;;;;20.30;4.40;;;13.50;99.90;;;;;;5081681;28;20353;-68
2022/02/24 07:03:29;;;;;;;15.77;3.77;;;13.60;99.90;;;;;;5094379;28;20197;-67
2022/02/24 07:05:55;;;;;;;24.63;4.00;;;13.60;99.90;;;;;;5065306;28;20821;-67
2022/02/24 07:08:22;;;;;;;20.30;4.60;;;13.70;99.90;;;;;;5067802;28;20255;-67
2022/02/24 07:10:48;;;;;;;18.47;4.33;;;13.70;99.90;;;;;;5067158;28;20194;-68
2022/02/24 07:13:14;;;;;;;17.20;3.80;;;13.70;99.90;;;;;;5069622;28;20898;-68
2022/02/24 07:15:41;;;;;;;21.80;4.27;;;13.60;99.90;;;;;;5084530;28;20305;-68
2022/02/24 07:18:07;;;;;;;16.80;3.40;;;13.60;99.90;;;;;;5097043;28;20285;-68
2022/02/24 07:20:33;;;;;;;27.77;4.37;;;13.70;99.90;;;;;;5090195;28;20642;-67
2022/02/24 07:23:00;;;;;;;16.47;4.30;;;13.60;99.90;;;;;;5066494;28;20190;-68
2022/02/24 07:25:26;;;;;;;24.20;4.07;;;13.70;99.90;;;;;;5077390;28;20736;-67
2022/02/24 07:27:53;;;;;;;13.73;3.93;;;13.70;99.90;;;;;;5073076;28;20941;-68
2022/02/24 07:30:19;;;;;;;19.60;4.53;;;13.70;99.90;;;;;;5081659;28;20202;-67
2022/02/24 07:32:46;;;;;;;26.83;4.20;;;13.70;99.90;;;;;;5082560;28;20225;-68
2022/02/24 07:35:13;;;;;;;26.43;5.20;;;13.70;99.90;;;;;;5069164;28;20194;-67
2022/02/24 07:37:39;;;;;;;24.70;5.30;;;13.60;99.90;;;;;;5075846;28;20939;-68
2022/02/24 07:40:06;;;;;;;23.50;4.27;;;13.60;99.90;;;;;;5104586;28;20233;-67
2022/02/24 07:42:34;;;;;;;24.87;5.00;;;13.50;99.90;;;;;;5069055;28;20223;-67
2022/02/24 07:45:02;;;;;;;28.67;4.73;;;13.50;99.90;;;;;;5079537;28;20944;-67
2022/02/24 07:47:30;;;;;;;17.23;3.90;;;13.50;99.90;;;;;;5085637;28;20265;-67
2022/02/24 07:49:56;;;;;;;23.63;5.13;;;13.50;99.90;;;;;;5082335;28;20191;-68
2022/02/24 07:52:23;;;;;;;18.97;4.50;;;13.50;99.90;;;;;;5077154;28;20282;-68
2022/02/24 07:54:50;;;;;;;23.50;5.07;;;13.50;99.90;;;;;;5071484;28;20283;-66
2022/02/24 07:57:16;;;;;;;25.60;5.37;;;13.50;99.90;;;;;;5091949;28;20621;-67
2022/02/24 07:59:42;;;;;;;23.03;4.50;;;13.50;99.90;;;;;;5085783;28;20196;-67
2022/02/24 08:02:09;;;;;;;24.70;4.83;;;13.50;99.90;;;;;;5085971;28;20639;-67
2022/02/24 08:04:36;;;;;;;32.10;5.50;;;13.40;99.90;;;;;;5092942;28;20675;-69
2022/02/24 08:07:03;;;;;;;34.43;6.47;;;13.40;99.90;;;;;;5088849;28;20197;-67
2022/02/24 08:09:29;;;;;;;29.43;5.40;;;13.50;99.90;;;;;;5073287;28;20747;-67
2022/02/24 08:14:41;;;;;;;29.27;6.10;;;13.60;99.90;;;;;;5077478;28;20197;-68
2022/02/24 08:17:07;;;;;;;35.67;6.17;;;13.60;99.90;;;;;;5060424;28;20210;-67
2022/02/24 08:19:34;;;;;;;36.57;6.93;;;13.60;99.90;;;;;;5078214;28;20643;-68
2022/02/24 08:22:02;;;;;;;27.33;5.13;;;13.50;99.90;;;;;;5072939;28;20289;-68
2022/02/24 08:24:31;;;;;;;28.40;4.73;;;13.30;99.90;;;;;;5075227;28;20194;-68
2022/02/24 08:26:58;;;;;;;22.43;5.00;;;13.20;99.90;;;;;;5077214;28;20551;-68
2022/02/24 08:29:24;;;;;;;29.30;5.60;;;13.20;99.90;;;;;;5081128;28;20198;-67
2022/02/24 08:31:50;;;;;;;29.20;5.37;;;13.10;99.90;;;;;;5079746;28;20193;-67
2022/02/24 08:34:17;;;;;;;32.60;4.73;;;13.10;99.90;;;;;;5079891;28;20242;-67
2022/02/24 08:36:44;;;;;;;37.33;5.50;;;13.00;99.90;;;;;;5076699;28;20187;-67
2022/02/24 08:39:11;;;;;;;28.27;4.90;;;12.90;99.90;;;;;;5074484;28;20640;-67
2022/02/24 08:41:40;;;;;;;25.20;4.23;;;12.90;99.90;;;;;;5062807;28;20187;-68
2022/02/24 08:44:07;;;;;;;27.60;5.53;;;12.80;99.90;;;;;;5086977;28;20198;-67
2022/02/24 08:46:33;;;;;;;21.90;4.87;;;12.80;99.90;;;;;;5061531;28;20204;-69
2022/02/24 08:48:59;;;;;;;17.43;4.13;;;12.70;99.90;;;;;;5085638;28;20302;-69
2022/02/24 08:51:26;;;;;;;28.50;4.10;;;12.70;99.90;;;;;;5088390;28;20658;-67
2022/02/24 08:53:52;;;;;;;15.67;3.90;;;12.60;99.90;;;;;;5085703;28;20222;-68
2022/02/24 08:56:20;;;;;;;25.87;4.97;;;12.60;99.90;;;;;;5074166;28;20198;-67
2022/02/24 08:58:46;;;;;;;23.27;4.53;;;12.60;99.90;;;;;;5072004;28;20191;-68
2022/02/24 09:01:12;;;;;;;19.63;3.70;;;12.50;99.90;;;;;;5074211;28;20209;-67
2022/02/24 09:03:39;;;;;;;27.37;5.10;;;12.40;99.90;;;;;;5055549;28;20194;-67
2022/02/24 09:06:05;;;;;;;21.27;3.70;;;12.40;99.90;;;;;;5077962;28;20570;-69
2022/02/24 09:08:31;;;;;;;21.70;4.03;;;12.40;99.90;;;;;;5081314;28;20266;-67
2022/02/24 09:11:00;;;;;;;18.83;4.23;;;12.30;99.90;;;;;;5088294;28;20220;-67
2022/02/24 09:13:27;;;;;;;26.63;4.70;;;12.30;99.90;;;;;;5081182;28;20221;-68
2022/02/24 09:15:53;;;;;;;20.03;4.17;;;12.30;99.90;;;;;;5072385;28;20214;-69
2022/02/24 09:18:20;;;;;;;32.70;5.93;;;12.30;99.90;;;;;;5078927;28;20189;-69
2022/02/24 09:20:46;;;;;;;21.07;4.20;;;12.10;99.90;;;;;;5068303;28;22322;-68
2022/02/24 09:23:13;;;;;;;18.63;4.50;;;12.10;99.90;;;;;;5061654;28;20233;-68
2022/02/24 09:25:40;;;;;;;19.20;4.37;;;12.10;99.90;;;;;;5073243;28;20240;-69
2022/02/24 09:28:07;;;;;;;24.93;4.30;;;12.10;99.90;;;;;;5076391;28;20594;-68
2022/02/24 09:30:34;;;;;;;15.87;3.97;;;12.00;99.90;;;;;;5078868;28;20240;-68
2022/02/24 09:33:00;;;;;;;19.87;4.40;;;12.10;99.90;;;;;;5070522;28;20226;-68
2022/02/24 09:35:27;;;;;;;16.53;4.10;;;12.10;99.90;;;;;;5076660;28;20195;-68
2022/02/24 09:37:53;;;;;;;15.27;4.03;;;12.20;99.90;;;;;;5072394;28;20214;-69
2022/02/24 09:40:22;;;;;;;20.93;4.27;;;12.20;99.90;;;;;;5076338;28;20190;-69
2022/02/24 09:42:49;;;;;;;26.10;4.43;;;12.20;99.90;;;;;;5085306;28;20719;-68
2022/02/24 09:45:15;;;;;;;21.73;4.30;;;12.20;99.90;;;;;;5082858;28;20194;-69
2022/02/24 09:47:43;;;;;;;22.07;4.03;;;12.20;99.90;;;;;;5071656;28;20195;-68
2022/02/24 09:50:09;;;;;;;18.33;3.83;;;12.20;99.90;;;;;;5085852;28;20214;-69
2022/02/24 09:52:36;;;;;;;21.87;4.03;;;12.10;99.90;;;;;;5075782;28;20221;-69
2022/02/24 09:55:04;;;;;;;23.93;3.70;;;12.20;99.90;;;;;;5076302;28;20182;-68
2022/02/24 09:57:30;;;;;;;24.27;4.17;;;12.20;99.90;;;;;;5086713;28;20190;-69
2022/02/24 09:59:56;;;;;;;22.37;4.70;;;12.20;99.90;;;;;;5079673;28;20201;-68
2022/02/24 10:02:27;;;;;;;22.33;4.63;;;12.10;99.90;;;;;;5058038;28;20222;-68
2022/02/24 10:05:07;;;;;;;26.37;6.13;;;12.00;99.90;;;;;;5078244;28;20277;-68
2022/02/24 10:07:38;;;;;;;25.07;7.10;;;12.00;99.90;;;;;;5075477;28;20189;-68
2022/02/24 10:10:30;;;;;;;28.50;6.67;;;12.20;99.90;;;;;;5082721;28;20221;-68
2022/02/24 10:13:04;;;;;;;21.67;6.17;;;12.40;99.90;;;;;;5075716;28;20536;-68
2022/02/24 10:15:31;;;;;;;25.20;5.83;;;12.50;99.90;;;;;;5059525;28;20213;-68
2022/02/24 10:18:17;;;;;;;27.93;5.43;;;12.70;99.90;;;;;;5067653;28;20630;-67
2022/02/24 10:21:00;;;;;;;20.97;5.27;;;12.70;99.90;;;;;;5079374;28;20247;-68
2022/02/24 10:23:39;;;;;;;20.47;4.47;;;12.60;99.90;;;;;;5098656;28;20189;-69
2022/02/24 10:26:07;;;;;;;26.27;5.10;;;12.50;99.90;;;;;;5085515;28;20198;-68
2022/02/24 10:28:52;;;;;;;21.47;4.70;;;12.50;99.90;;;;;;5087728;28;20515;-68
2022/02/24 10:31:27;;;;;;;18.70;3.90;;;12.50;99.90;;;;;;5081351;28;20204;-68
2022/02/24 10:34:06;;;;;;;19.10;4.50;;;12.60;99.90;;;;;;5074725;28;20265;-68
2022/02/24 10:36:38;;;;;;;18.03;4.43;;;12.60;99.90;;;;;;5077346;28;20190;-68
2022/02/24 10:39:07;;;;;;;20.17;4.67;;;12.60;99.90;;;;;;5073559;28;20180;-68
2022/02/24 10:41:43;;;;;;;21.63;3.97;;;12.60;99.90;;;;;;5079766;28;20183;-68
2022/02/24 10:44:25;;;;;;;14.63;3.87;;;12.60;99.90;;;;;;5076983;28;20927;-67
2022/02/24 10:47:12;;;;;;;18.80;3.97;;;12.60;99.90;;;;;;5058969;28;20337;-68
2022/02/24 10:49:43;;;;;;;18.03;3.63;;;12.50;99.90;;;;;;5072621;28;20183;-67
2022/02/24 10:52:21;;;;;;;15.53;3.60;;;12.50;99.90;;;;;;5074905;28;20267;-68
2022/02/24 10:55:06;;;;;;;19.63;3.80;;;12.40;99.90;;;;;;5075491;28;20239;-68
2022/02/24 10:57:33;;;;;;;20.30;3.70;;;12.50;99.90;;;;;;5074854;28;20194;-69
2022/02/24 11:00:00;;;;;;;18.13;3.67;;;12.60;99.90;;;;;;5074146;28;20276;-68
2022/02/24 11:02:28;;;;;;;11.23;4.10;;;12.60;99.90;;;;;;5080058;28;20190;-68
2022/02/24 11:04:56;;;;;;;10.37;3.43;;;12.60;99.90;;;;;;5074323;28;20641;-69
2022/02/24 11:07:24;;;;;;;18.83;3.93;;;12.70;99.90;;;;;;5088706;28;20251;-68
2022/02/24 11:09:56;;;;;;;11.80;3.30;;;12.70;99.90;;;;;;5062791;28;20182;-67
2022/02/24 11:12:28;;;;;;;18.20;5.50;;;12.80;99.90;;;;;;5082230;28;20267;-67
2022/02/24 11:14:56;;;;;;;15.27;3.80;;;12.90;99.90;;;;;;5067150;28;20523;-68
2022/02/24 11:17:23;;;;;;;16.80;3.60;;;13.00;99.90;;;;;;5060158;28;20201;-68
2022/02/24 11:19:51;;;;;;;13.47;3.57;;;13.10;99.90;;;;;;5070425;28;20184;-67
2022/02/24 11:22:18;;;;;;;23.97;3.87;;;13.20;99.90;;;;;;5087062;28;20771;-68
2022/02/24 11:24:45;;;;;;;21.93;3.90;;;13.40;99.90;;;;;;5085824;28;20269;-68
2022/02/24 11:27:48;;;;;;;14.90;3.30;;;13.60;99.90;;;;;;5089737;28;20190;-68
2022/02/24 11:30:28;;;;;;;12.03;3.97;;;13.90;99.90;;;;;;5078419;28;20189;-67
2022/02/24 11:32:55;;;;;;;16.27;4.10;;;13.90;99.90;;;;;;5067904;28;20232;-68
2022/02/24 11:35:22;;;;;;;14.53;3.63;;;13.80;99.90;;;;;;5066723;28;20226;-67
2022/02/24 11:38:12;;;;;;;18.57;4.27;;;13.80;99.90;;;;;;5076998;28;20177;-69
2022/02/24 11:40:40;;;;;;;18.43;3.90;;;13.90;99.90;;;;;;5069597;28;20214;-67
2022/02/24 11:43:21;;;;;;;17.83;4.53;;;13.90;99.90;;;;;;5089868;28;20209;-68
2022/02/24 11:45:57;;;;;;;19.00;4.53;;;14.10;99.90;;;;;;5068816;28;20182;-69
2022/02/24 11:48:29;;;;;;;13.30;4.40;;;14.40;99.90;;;;;;5082590;28;20336;-68
2022/02/24 11:51:17;;;;;;;17.00;4.53;;;14.60;99.90;;;;;;5068493;28;20191;-68
2022/02/24 11:53:49;;;;;;;14.20;4.80;;;14.70;99.90;;;;;;5071484;28;20211;-68
2022/02/24 11:56:18;;;;;;;13.57;4.30;;;14.70;99.90;;;;;;5077411;28;20261;-68
2022/02/24 11:58:52;;;;;;;15.63;4.13;;;14.60;99.90;;;;;;5074252;28;20179;-68
2022/02/24 12:01:28;;;;;;;11.77;3.53;;;14.50;99.90;;;;;;5076859;28;20262;-67
2022/02/24 12:04:27;;;;;;;13.93;3.53;;;14.50;99.90;;;;;;5075183;28;20182;-68
2022/02/24 12:07:22;;;;;;;11.40;3.87;;;14.40;99.90;;;;;;5076750;28;20676;-68
2022/02/24 12:10:11;;;;;;;17.00;4.40;;;14.30;99.90;;;;;;5094752;28;20285;-69
2022/02/24 12:12:37;;;;;;;12.53;3.87;;;14.20;99.90;;;;;;5068085;28;20217;-68
2022/02/24 12:15:20;;;;;;;7.70;3.73;;;14.20;99.90;;;;;;5082918;28;20175;-68
2022/02/24 12:17:49;;;;;;;12.70;3.87;;;14.10;99.90;;;;;;5076703;28;20178;-67
2022/02/24 12:20:26;;;;;;;13.87;4.87;;;14.20;99.90;;;;;;5088228;28;20182;-67
2022/02/24 12:22:53;;;;;;;9.43;4.03;;;14.10;99.90;;;;;;5089250;28;20698;-68
2022/02/24 12:25:28;;;;;;;16.77;4.27;;;14.10;99.90;;;;;;5074981;28;20222;-68
2022/02/24 12:28:09;;;;;;;15.97;4.33;;;14.10;99.90;;;;;;5069782;28;20194;-68
2022/02/24 12:30:44;;;;;;;15.90;3.87;;;14.10;99.90;;;;;;5073041;28;20240;-67
2022/02/24 12:33:18;;;;;;;12.13;3.80;;;14.00;99.90;;;;;;5070070;28;20213;-68
2022/02/24 12:35:47;;;;;;;17.57;4.50;;;14.00;99.90;;;;;;5070325;28;20182;-68
2022/02/24 12:38:17;;;;;;;12.30;4.20;;;13.90;99.90;;;;;;5071324;28;20328;-69
2022/02/24 12:40:54;;;;;;;10.57;3.77;;;13.80;99.90;;;;;;5070275;28;20187;-69
2022/02/24 12:43:23;;;;;;;10.13;3.80;;;13.70;99.90;;;;;;5075119;28;20190;-67
2022/02/24 12:45:53;;;;;;;16.23;4.00;;;13.70;99.90;;;;;;5062048;28;20655;-68
2022/02/24 12:48:20;;;;;;;18.87;4.90;;;13.60;99.90;;;;;;5077541;28;20205;-67